Time;durP1;ratioP1;P1;durP2;ratioP2;P2;SDS_P1;SDS_P2;PMS_P1;PMS_P2;Temp;Humidity;BMP_temperature;BMP_pressure;BME280_temperature;BME280_humidity;BME280_pressure;Samples;Min_cycle;Max_cycle;Signal;HPM_P1;HPM_P2
2021/03/08 00:01:39;;;;;;;1999.90;999.90;;;;;;;;;;5067148;28;20033;-83
2021/03/08 00:04:05;;;;;;;1999.90;999.90;;;;;;;;;;5066013;28;20437;-83
2021/03/08 00:06:30;;;;;;;1999.90;999.90;;;;;;;;;;5066711;28;20029;-82
2021/03/08 00:08:56;;;;;;;1999.90;999.90;;;;;;;;;;5060355;28;20025;-83
2021/03/08 00:11:21;;;;;;;1999.90;999.90;;;;;;;;;;5066177;28;20029;-82
2021/03/08 00:13:47;;;;;;;1999.90;999.90;;;;;;;;;;5062179;28;20093;-83
2021/03/08 00:16:12;;;;;;;1999.90;999.90;;;;;;;;;;5063026;28;20044;-83
2021/03/08 00:18:38;;;;;;;1999.90;999.90;;;;;;;;;;5063314;28;20428;-83
2021/03/08 00:21:03;;;;;;;1999.90;999.90;;;;;;;;;;5064429;28;20123;-83
2021/03/08 00:23:29;;;;;;;1999.90;999.90;;;;;;;;;;5062519;28;20052;-84
2021/03/08 00:25:54;;;;;;;1999.90;999.90;;;;;;;;;;5063401;28;20127;-82
2021/03/08 00:28:19;;;;;;;1999.90;999.90;;;;;;;;;;5062344;28;20669;-82
2021/03/08 00:30:45;;;;;;;1999.90;999.90;;;;;;;;;;5060882;28;20065;-83
2021/03/08 00:33:10;;;;;;;1999.90;999.90;;;;;;;;;;5061355;28;20056;-82
2021/03/08 00:35:36;;;;;;;1999.90;999.90;;;;;;;;;;5059313;28;20399;-83
2021/03/08 00:38:01;;;;;;;1999.90;999.90;;;;;;;;;;5060802;28;20457;-82
2021/03/08 00:40:27;;;;;;;1999.90;999.90;;;;;;;;;;5057164;28;20544;-83
2021/03/08 00:42:52;;;;;;;1999.90;999.90;;;;;;;;;;5061039;28;20027;-83
2021/03/08 00:45:19;;;;;;;1999.90;999.90;;;;;;;;;;5057552;28;20043;-83
2021/03/08 00:47:49;;;;;;;1999.90;999.90;;;;;;;;;;5058500;28;20440;-83
2021/03/08 00:50:16;;;;;;;1999.90;999.90;;;;;;;;;;5061556;28;20028;-83
2021/03/08 00:52:43;;;;;;;1999.90;999.90;;;;;;;;;;5060249;28;20053;-82
2021/03/08 00:55:09;;;;;;;1999.90;999.90;;;;;;;;;;5064593;28;20051;-83
2021/03/08 00:57:35;;;;;;;1999.90;999.90;;;;;;;;;;5059672;28;20035;-83
2021/03/08 01:00:00;;;;;;;1999.90;999.90;;;;;;;;;;5064306;28;20115;-82
2021/03/08 01:02:26;;;;;;;1999.90;999.90;;;;;;;;;;5066418;28;20111;-83
2021/03/08 01:04:52;;;;;;;1999.90;999.90;;;;;;;;;;5059439;28;20126;-83
2021/03/08 01:07:17;;;;;;;1999.90;999.90;;;;;;;;;;5061212;28;20024;-83
2021/03/08 01:09:46;;;;;;;1999.90;999.90;;;;;;;;;;5063360;28;20036;-83
2021/03/08 01:12:14;;;;;;;1999.90;999.90;;;;;;;;;;5062682;28;20111;-84
2021/03/08 01:14:43;;;;;;;1999.90;999.90;;;;;;;;;;5058587;28;20025;-84
2021/03/08 01:17:09;;;;;;;1999.90;999.90;;;;;;;;;;5059944;28;20377;-83
2021/03/08 01:19:34;;;;;;;1999.90;999.90;;;;;;;;;;5061845;28;20447;-84
2021/03/08 01:22:00;;;;;;;1999.90;999.90;;;;;;;;;;5061340;28;20036;-84
2021/03/08 01:24:25;;;;;;;1999.90;999.90;;;;;;;;;;5065946;28;20064;-83
2021/03/08 01:26:51;;;;;;;1999.90;999.90;;;;;;;;;;5061927;28;20129;-84
2021/03/08 01:29:16;;;;;;;1999.90;999.90;;;;;;;;;;5060205;28;20039;-84
2021/03/08 01:31:41;;;;;;;1999.90;999.90;;;;;;;;;;5067252;28;20028;-84
2021/03/08 01:34:07;;;;;;;1999.90;999.90;;;;;;;;;;5062400;28;20131;-84
2021/03/08 01:36:32;;;;;;;1999.90;999.90;;;;;;;;;;5055724;28;20046;-84
2021/03/08 01:38:57;;;;;;;1999.90;999.90;;;;;;;;;;5068423;28;20028;-83
2021/03/08 01:41:23;;;;;;;1999.90;999.90;;;;;;;;;;5064100;28;20044;-84
2021/03/08 01:43:48;;;;;;;1999.90;999.90;;;;;;;;;;5068694;28;20040;-84
2021/03/08 01:46:14;;;;;;;1999.90;999.90;;;;;;;;;;5063970;28;20024;-84
2021/03/08 01:48:39;;;;;;;1999.90;999.90;;;;;;;;;;5069184;28;20056;-84
2021/03/08 01:51:05;;;;;;;1999.90;999.90;;;;;;;;;;5064483;28;20074;-84
2021/03/08 01:53:31;;;;;;;1999.90;999.90;;;;;;;;;;5069954;28;20465;-83
2021/03/08 01:55:57;;;;;;;1999.90;999.90;;;;;;;;;;5066737;28;20044;-84
2021/03/08 01:58:25;;;;;;;1999.90;999.90;;;;;;;;;;5069277;28;20032;-84
2021/03/08 02:00:51;;;;;;;1999.90;999.90;;;;;;;;;;5068261;28;20025;-83
2021/03/08 02:03:16;;;;;;;1999.90;999.90;;;;;;;;;;5068723;28;20431;-84
2021/03/08 02:05:42;;;;;;;1999.90;999.90;;;;;;;;;;5069003;28;20052;-85
2021/03/08 02:08:09;;;;;;;1999.90;999.90;;;;;;;;;;5068412;28;20140;-85
2021/03/08 02:10:36;;;;;;;1999.90;999.90;;;;;;;;;;5063739;28;20044;-84
2021/03/08 02:13:07;;;;;;;1999.90;999.90;;;;;;;;;;5062963;28;20044;-84
2021/03/08 02:15:51;;;;;;;1999.90;999.90;;;;;;;;;;5069295;28;20058;-84
2021/03/08 02:18:29;;;;;;;1999.90;999.90;;;;;;;;;;5068896;28;20123;-84
2021/03/08 02:20:56;;;;;;;1999.90;999.90;;;;;;;;;;5067022;28;20045;-83
2021/03/08 02:23:21;;;;;;;1999.90;999.90;;;;;;;;;;5064811;28;20020;-84
2021/03/08 02:25:49;;;;;;;1999.90;999.90;;;;;;;;;;5067774;28;20041;-84
2021/03/08 02:28:34;;;;;;;1999.90;999.90;;;;;;;;;;5062926;28;20013;-83
2021/03/08 02:31:01;;;;;;;1999.90;999.90;;;;;;;;;;5068734;28;20480;-84
2021/03/08 02:33:31;;;;;;;1999.90;999.90;;;;;;;;;;5068139;28;20039;-84
2021/03/08 02:36:00;;;;;;;1999.90;999.90;;;;;;;;;;5061509;28;20453;-83
2021/03/08 02:38:30;;;;;;;1999.90;999.90;;;;;;;;;;5068837;28;20021;-84
2021/03/08 02:41:03;;;;;;;1999.90;999.90;;;;;;;;;;5063677;28;20039;-85
2021/03/08 02:43:30;;;;;;;1999.90;999.90;;;;;;;;;;5067391;28;20471;-85
2021/03/08 02:45:57;;;;;;;1999.90;999.90;;;;;;;;;;5065366;28;20540;-83
2021/03/08 02:48:23;;;;;;;1999.90;999.90;;;;;;;;;;5059986;28;20063;-83
2021/03/08 02:50:50;;;;;;;1999.90;999.90;;;;;;;;;;5067601;28;20127;-84
2021/03/08 02:53:16;;;;;;;1999.90;999.90;;;;;;;;;;5060495;28;20081;-85
2021/03/08 02:55:44;;;;;;;1999.90;999.90;;;;;;;;;;5064417;28;20166;-85
2021/03/08 02:58:11;;;;;;;1999.90;999.90;;;;;;;;;;5072957;28;20037;-85
2021/03/08 03:00:37;;;;;;;1999.90;999.90;;;;;;;;;;5071939;28;20025;-85
2021/03/08 03:03:05;;;;;;;1999.90;999.90;;;;;;;;;;5071666;28;20119;-84
2021/03/08 03:05:31;;;;;;;1999.90;999.90;;;;;;;;;;5072031;28;20029;-85
2021/03/08 03:07:58;;;;;;;1999.90;999.90;;;;;;;;;;5069711;28;20118;-85
2021/03/08 03:10:27;;;;;;;1999.90;999.90;;;;;;;;;;5071783;28;20476;-86
2021/03/08 03:12:53;;;;;;;1999.90;999.90;;;;;;;;;;5070331;28;20142;-84
2021/03/08 03:15:19;;;;;;;1999.90;999.90;;;;;;;;;;5067147;28;20020;-85
2021/03/08 03:17:46;;;;;;;1999.90;999.90;;;;;;;;;;5066408;28;20420;-85
2021/03/08 03:20:13;;;;;;;1999.90;999.90;;;;;;;;;;5062649;28;20060;-84
2021/03/08 03:22:40;;;;;;;1999.90;999.90;;;;;;;;;;5068107;28;20380;-86
2021/03/08 03:25:06;;;;;;;1999.90;999.90;;;;;;;;;;5066764;28;20144;-85
2021/03/08 03:27:32;;;;;;;1999.90;999.90;;;;;;;;;;5068903;28;20414;-84
2021/03/08 03:29:58;;;;;;;1999.90;999.90;;;;;;;;;;5067113;28;20034;-84
2021/03/08 03:32:24;;;;;;;1999.90;999.90;;;;;;;;;;5065813;28;20067;-83
2021/03/08 03:34:50;;;;;;;1999.90;999.90;;;;;;;;;;5080458;28;20029;-84
2021/03/08 03:37:18;;;;;;;1999.90;999.90;;;;;;;;;;5093766;28;20028;-85
2021/03/08 03:39:43;;;;;;;1999.90;999.90;;;;;;;;;;5085977;28;20066;-84
2021/03/08 03:42:09;;;;;;;1999.90;999.90;;;;;;;;;;5065440;28;20056;-84
2021/03/08 03:44:34;;;;;;;1999.90;999.90;;;;;;;;;;5060991;28;20070;-84
2021/03/08 03:47:01;;;;;;;1999.90;999.90;;;;;;;;;;5059110;28;20037;-84
2021/03/08 03:49:26;;;;;;;1999.90;999.90;;;;;;;;;;5062949;28;20019;-84
2021/03/08 03:51:52;;;;;;;1999.90;999.90;;;;;;;;;;5060650;28;21035;-85
2021/03/08 03:54:17;;;;;;;1999.90;999.90;;;;;;;;;;5058629;28;20017;-84
2021/03/08 03:56:45;;;;;;;1999.90;999.90;;;;;;;;;;5056123;28;20124;-84
2021/03/08 03:59:22;;;;;;;1999.90;999.90;;;;;;;;;;5063167;28;20103;-85
2021/03/08 04:01:57;;;;;;;1999.90;999.90;;;;;;;;;;5062847;28;20032;-85
2021/03/08 04:04:27;;;;;;;1999.90;999.90;;;;;;;;;;5062632;28;20070;-85
2021/03/08 04:06:53;;;;;;;1999.90;999.90;;;;;;;;;;5059823;28;20040;-85
2021/03/08 04:09:23;;;;;;;1999.90;999.90;;;;;;;;;;5061215;28;20048;-84
2021/03/08 04:11:51;;;;;;;1999.90;999.90;;;;;;;;;;5058058;28;20028;-85
2021/03/08 04:14:19;;;;;;;1999.90;999.90;;;;;;;;;;5062247;28;20044;-84
2021/03/08 04:16:46;;;;;;;1999.90;999.90;;;;;;;;;;5061399;28;20123;-84
2021/03/08 04:19:13;;;;;;;1999.90;999.90;;;;;;;;;;5060572;28;20503;-84
2021/03/08 04:21:39;;;;;;;1999.90;999.90;;;;;;;;;;5060793;28;20031;-84
2021/03/08 04:24:05;;;;;;;1999.90;999.90;;;;;;;;;;5064830;28;20024;-85
2021/03/08 04:26:30;;;;;;;1999.90;999.90;;;;;;;;;;5066695;28;20085;-85
2021/03/08 04:28:57;;;;;;;1999.90;999.90;;;;;;;;;;5065509;28;20039;-84
2021/03/08 04:31:22;;;;;;;1999.90;999.90;;;;;;;;;;5066174;28;20433;-85
2021/03/08 04:33:48;;;;;;;1999.90;999.90;;;;;;;;;;5065004;28;20013;-84
2021/03/08 04:36:14;;;;;;;1999.90;999.90;;;;;;;;;;5066075;28;20025;-84
2021/03/08 04:38:41;;;;;;;1999.90;999.90;;;;;;;;;;5063149;28;20028;-84
2021/03/08 04:41:07;;;;;;;1999.90;999.90;;;;;;;;;;5065471;28;20124;-84
2021/03/08 04:43:33;;;;;;;1999.90;999.90;;;;;;;;;;5061026;28;20408;-84
2021/03/08 04:45:58;;;;;;;1999.90;999.90;;;;;;;;;;5064536;28;20399;-84
2021/03/08 04:48:25;;;;;;;1999.90;999.90;;;;;;;;;;5063759;28;20104;-85
2021/03/08 04:50:50;;;;;;;1999.90;999.90;;;;;;;;;;5058844;28;20032;-85
2021/03/08 04:53:16;;;;;;;1999.90;999.90;;;;;;;;;;5061505;28;20524;-84
2021/03/08 04:55:42;;;;;;;1999.90;999.90;;;;;;;;;;5061146;28;20047;-83
2021/03/08 04:58:08;;;;;;;1999.90;999.90;;;;;;;;;;5058716;28;20687;-82
2021/03/08 05:00:33;;;;;;;1999.90;999.90;;;;;;;;;;5068441;28;20033;-82
2021/03/08 05:02:59;;;;;;;1999.90;999.90;;;;;;;;;;5062275;28;20044;-83
2021/03/08 05:05:25;;;;;;;1999.90;999.90;;;;;;;;;;5063424;28;20048;-83
2021/03/08 05:07:53;;;;;;;1999.90;999.90;;;;;;;;;;5071953;28;20665;-84
2021/03/08 05:10:19;;;;;;;1999.90;999.90;;;;;;;;;;5059765;28;20424;-85
2021/03/08 05:12:45;;;;;;;1999.90;999.90;;;;;;;;;;5070560;28;20016;-84
2021/03/08 05:15:12;;;;;;;1999.90;999.90;;;;;;;;;;5069136;28;20039;-84
2021/03/08 05:17:38;;;;;;;1999.90;999.90;;;;;;;;;;5055839;28;20024;-84
2021/03/08 05:20:05;;;;;;;1999.90;999.90;;;;;;;;;;5060475;28;20066;-83
2021/03/08 05:22:30;;;;;;;1999.90;999.90;;;;;;;;;;5071708;28;20044;-84
2021/03/08 05:24:56;;;;;;;1999.90;999.90;;;;;;;;;;5066800;28;20466;-85
2021/03/08 05:27:22;;;;;;;1999.90;999.90;;;;;;;;;;5067755;28;20013;-83
2021/03/08 05:29:48;;;;;;;1999.90;999.90;;;;;;;;;;5059335;28;20048;-84
2021/03/08 05:32:16;;;;;;;1999.90;999.90;;;;;;;;;;5065117;28;20031;-84
2021/03/08 05:34:44;;;;;;;1999.90;999.90;;;;;;;;;;5063506;28;20051;-85
2021/03/08 05:37:11;;;;;;;1999.90;999.90;;;;;;;;;;5064522;28;20020;-79
2021/03/08 05:39:37;;;;;;;1999.90;999.90;;;;;;;;;;5062847;28;20072;-79
2021/03/08 05:42:12;;;;;;;1999.90;999.90;;;;;;;;;;5057071;28;20604;-81
2021/03/08 05:44:41;;;;;;;1999.90;999.90;;;;;;;;;;5065137;28;20048;-81
2021/03/08 05:47:25;;;;;;;1999.90;999.90;;;;;;;;;;5058811;28;20500;-81
2021/03/08 05:50:02;;;;;;;1999.90;999.90;;;;;;;;;;5064610;28;20021;-80
2021/03/08 05:52:40;;;;;;;1999.90;999.90;;;;;;;;;;5065993;28;20032;-81
2021/03/08 05:55:24;;;;;;;1999.90;999.90;;;;;;;;;;5065043;28;20028;-80
2021/03/08 05:57:56;;;;;;;1999.90;999.90;;;;;;;;;;5067469;28;20031;-79
2021/03/08 06:00:45;;;;;;;1999.90;999.90;;;;;;;;;;5063766;28;20043;-79
2021/03/08 06:03:29;;;;;;;1999.90;999.90;;;;;;;;;;5063442;28;20382;-78
2021/03/08 06:06:13;;;;;;;1999.90;999.90;;;;;;;;;;5063151;28;20410;-79
2021/03/08 06:08:59;;;;;;;1999.90;999.90;;;;;;;;;;5064927;28;20104;-78
2021/03/08 06:11:25;;;;;;;1999.90;999.90;;;;;;;;;;5057233;28;20086;-78
2021/03/08 06:13:54;;;;;;;1999.90;999.90;;;;;;;;;;5062320;28;20029;-80
2021/03/08 06:16:25;;;;;;;1999.90;999.90;;;;;;;;;;5066302;28;20028;-81
2021/03/08 06:18:50;;;;;;;1999.90;999.90;;;;;;;;;;5056955;28;20067;-81
2021/03/08 06:21:16;;;;;;;1999.90;999.90;;;;;;;;;;5063907;28;20045;-80
2021/03/08 06:23:42;;;;;;;1999.90;999.90;;;;;;;;;;5062659;28;20036;-77
2021/03/08 06:26:08;;;;;;;1999.90;999.90;;;;;;;;;;5069375;28;20498;-77
2021/03/08 06:28:34;;;;;;;1999.90;999.90;;;;;;;;;;5064938;28;20036;-77
2021/03/08 06:30:59;;;;;;;1999.90;999.90;;;;;;;;;;5063979;28;20024;-77
2021/03/08 06:33:25;;;;;;;1999.90;999.90;;;;;;;;;;5069248;28;20100;-79
2021/03/08 06:35:51;;;;;;;1999.90;999.90;;;;;;;;;;5068271;28;20052;-78
2021/03/08 06:38:17;;;;;;;1999.90;999.90;;;;;;;;;;5067315;28;20090;-78
2021/03/08 06:40:42;;;;;;;1999.90;999.90;;;;;;;;;;5070829;28;20476;-79
2021/03/08 06:43:08;;;;;;;1999.90;999.90;;;;;;;;;;5067673;28;20035;-79
2021/03/08 06:45:33;;;;;;;1999.90;999.90;;;;;;;;;;5065787;28;20108;-78
2021/03/08 06:47:59;;;;;;;1999.90;999.90;;;;;;;;;;5066927;28;20638;-78
2021/03/08 06:50:24;;;;;;;1999.90;999.90;;;;;;;;;;5067155;28;20601;-77
2021/03/08 06:52:50;;;;;;;1999.90;999.90;;;;;;;;;;5066278;28;20033;-78
2021/03/08 06:55:19;;;;;;;1999.90;999.90;;;;;;;;;;5070279;28;20074;-77
2021/03/08 06:57:45;;;;;;;1999.90;999.90;;;;;;;;;;5063548;28;20033;-81
2021/03/08 07:00:11;;;;;;;1999.90;999.90;;;;;;;;;;5068208;28;20115;-83
2021/03/08 07:02:43;;;;;;;1999.90;999.90;;;;;;;;;;5068839;28;20056;-83
2021/03/08 07:05:10;;;;;;;1999.90;999.90;;;;;;;;;;5058511;28;20216;-82
2021/03/08 07:07:56;;;;;;;1999.90;999.90;;;;;;;;;;5061877;28;20043;-83
2021/03/08 07:10:22;;;;;;;;;;;;;;;;;;5066744;28;20028;-83
2021/03/08 07:12:48;;;;;;;1999.90;999.90;;;;;;;;;;5060759;28;19904;-83
2021/03/08 07:15:14;;;;;;;1999.90;999.90;;;;;;;;;;5068437;28;20098;-83
2021/03/08 07:17:39;;;;;;;1999.90;999.90;;;;;;;;;;5067515;28;20357;-83
2021/03/08 07:20:06;;;;;;;1999.90;999.90;;;;;;;;;;5068478;28;20029;-81
2021/03/08 07:22:51;;;;;;;1999.90;999.90;;;;;;;;;;5067403;28;20043;-82
2021/03/08 07:25:27;;;;;;;1999.90;999.90;;;;;;;;;;5061221;28;20460;-74
2021/03/08 07:27:54;;;;;;;1999.90;999.90;;;;;;;;;;5067275;28;20101;-77
2021/03/08 07:30:21;;;;;;;1999.90;999.90;;;;;;;;;;5071937;28;20054;-76
2021/03/08 07:32:56;;;;;;;1999.90;999.90;;;;;;;;;;5073073;28;20032;-76
2021/03/08 07:35:33;;;;;;;1999.90;999.90;;;;;;;;;;5071369;28;20410;-81
2021/03/08 07:37:59;;;;;;;1999.90;999.90;;;;;;;;;;5065499;28;20048;-78
2021/03/08 07:40:24;;;;;;;1999.90;999.90;;;;;;;;;;5062482;28;20012;-81
2021/03/08 07:42:50;;;;;;;1999.90;999.90;;;;;;;;;;5067233;28;20097;-80
2021/03/08 07:45:16;;;;;;;1999.90;999.90;;;;;;;;;;5067310;28;20098;-81
2021/03/08 07:47:41;;;;;;;1999.90;999.90;;;;;;;;;;5064189;28;20075;-81
2021/03/08 07:50:26;;;;;;;1999.90;999.90;;;;;;;;;;5064190;28;20044;-79
2021/03/08 07:52:53;;;;;;;1999.90;999.90;;;;;;;;;;5059350;28;20029;-79
2021/03/08 07:55:18;;;;;;;1999.90;999.90;;;;;;;;;;5062894;28;20038;-80
2021/03/08 07:57:45;;;;;;;1999.90;999.90;;;;;;;;;;5062190;28;20051;-79
2021/03/08 08:00:10;;;;;;;1999.90;999.90;;;;;;;;;;5065105;28;20041;-79
2021/03/08 08:02:36;;;;;;;1999.90;999.90;;;;;;;;;;5066394;28;20028;-79
2021/03/08 08:05:02;;;;;;;1999.90;999.90;;;;;;;;;;5064742;28;20079;-79
2021/03/08 08:07:30;;;;;;;1999.90;999.90;;;;;;;;;;5066917;28;20416;-79
2021/03/08 08:09:58;;;;;;;1999.90;999.90;;;;;;;;;;5064276;28;20028;-79
2021/03/08 08:12:28;;;;;;;1999.90;999.90;;;;;;;;;;5069642;28;20033;-79
2021/03/08 08:14:54;;;;;;;1999.90;999.90;;;;;;;;;;5065516;28;20028;-80
2021/03/08 08:17:21;;;;;;;1999.90;999.90;;;;;;;;;;5063885;28;20369;-81
2021/03/08 08:19:48;;;;;;;1999.90;999.90;;;;;;;;;;5061738;28;20444;-80
2021/03/08 08:22:15;;;;;;;1999.90;999.90;;;;;;;;;;5066830;28;20087;-80
2021/03/08 08:24:42;;;;;;;1999.90;999.90;;;;;;;;;;5066571;28;20037;-81
2021/03/08 08:27:09;;;;;;;1999.90;999.90;;;;;;;;;;5067181;28;20094;-81
2021/03/08 08:29:36;;;;;;;1999.90;999.90;;;;;;;;;;5067170;28;20021;-80
2021/03/08 08:32:05;;;;;;;1999.90;999.90;;;;;;;;;;5066250;28;20017;-80
2021/03/08 08:34:30;;;;;;;1999.90;999.90;;;;;;;;;;5064238;28;20028;-80
2021/03/08 08:37:05;;;;;;;1999.90;999.90;;;;;;;;;;5063608;28;20429;-81
2021/03/08 08:39:31;;;;;;;1999.90;999.90;;;;;;;;;;5065949;28;20035;-80
2021/03/08 08:42:12;;;;;;;1999.90;999.90;;;;;;;;;;5058297;28;20017;-80
2021/03/08 08:44:38;;;;;;;1999.90;999.90;;;;;;;;;;5059366;28;20057;-81
2021/03/08 08:47:22;;;;;;;1999.90;999.90;;;;;;;;;;5062874;28;20028;-81
2021/03/08 08:49:48;;;;;;;1999.90;999.90;;;;;;;;;;5051494;28;20044;-80
2021/03/08 08:52:15;;;;;;;1999.90;999.90;;;;;;;;;;5055967;28;20531;-80
2021/03/08 08:54:40;;;;;;;1999.90;999.90;;;;;;;;;;5066259;28;20452;-82
2021/03/08 08:57:11;;;;;;;1999.90;999.90;;;;;;;;;;5063055;28;20055;-81
2021/03/08 08:59:38;;;;;;;1999.90;999.90;;;;;;;;;;5063562;28;20029;-81
2021/03/08 09:02:45;;;;;;;1999.90;999.90;;;;;;;;;;5063865;28;20016;-81
2021/03/08 09:05:24;;;;;;;1999.90;999.90;;;;;;;;;;5064088;28;20056;-81
2021/03/08 09:08:10;;;;;;;1999.90;999.90;;;;;;;;;;5061163;28;20565;-81
2021/03/08 09:10:35;;;;;;;1999.90;999.90;;;;;;;;;;5061675;28;20039;-80
2021/03/08 09:13:07;;;;;;;1999.90;999.90;;;;;;;;;;5066302;28;20392;-81
2021/03/08 09:15:33;;;;;;;1999.90;999.90;;;;;;;;;;5057003;28;20043;-81
2021/03/08 09:18:02;;;;;;;1999.90;999.90;;;;;;;;;;5069775;28;20017;-81
2021/03/08 09:20:29;;;;;;;1999.90;999.90;;;;;;;;;;5064380;28;20037;-80
2021/03/08 09:22:57;;;;;;;1999.90;999.90;;;;;;;;;;5064020;28;20041;-79
2021/03/08 09:25:25;;;;;;;1999.90;999.90;;;;;;;;;;5065365;28;20484;-79
2021/03/08 09:28:02;;;;;;;1999.90;999.90;;;;;;;;;;5063784;28;20033;-79
2021/03/08 09:30:33;;;;;;;1999.90;999.90;;;;;;;;;;5063452;28;20028;-79
2021/03/08 09:33:01;;;;;;;1999.90;999.90;;;;;;;;;;5064859;28;20037;-78
2021/03/08 09:35:33;;;;;;;1999.90;999.90;;;;;;;;;;5060248;28;20475;-79
2021/03/08 09:38:00;;;;;;;1999.90;999.90;;;;;;;;;;5061996;28;20113;-79
2021/03/08 09:40:27;;;;;;;1999.90;999.90;;;;;;;;;;5061698;28;20108;-80
2021/03/08 09:42:52;;;;;;;1999.90;999.90;;;;;;;;;;5062929;28;20090;-79
2021/03/08 09:45:30;;;;;;;1999.90;999.90;;;;;;;;;;5065941;28;20512;-77
2021/03/08 09:47:56;;;;;;;1999.90;999.90;;;;;;;;;;5063784;28;20094;-76
2021/03/08 09:50:32;;;;;;;1999.90;999.90;;;;;;;;;;5064316;28;20469;-76
2021/03/08 09:52:58;;;;;;;1999.90;999.90;;;;;;;;;;5065416;28;20037;-77
2021/03/08 09:55:44;;;;;;;1999.90;999.90;;;;;;;;;;5065637;28;20031;-75
2021/03/08 09:58:14;;;;;;;1999.90;999.90;;;;;;;;;;5065425;28;20132;-76
2021/03/08 10:00:40;;;;;;;1999.90;999.90;;;;;;;;;;5068353;28;20098;-76
2021/03/08 10:03:06;;;;;;;1999.90;999.90;;;;;;;;;;5062958;28;20017;-76
2021/03/08 10:05:42;;;;;;;1999.90;999.90;;;;;;;;;;5067774;28;20399;-76
2021/03/08 10:08:08;;;;;;;1999.90;999.90;;;;;;;;;;5062168;28;20036;-76
2021/03/08 10:10:39;;;;;;;1999.90;999.90;;;;;;;;;;5068712;28;20372;-76
2021/03/08 10:13:05;;;;;;;1999.90;999.90;;;;;;;;;;5067741;28;20035;-76
2021/03/08 10:15:40;;;;;;;1999.90;999.90;;;;;;;;;;5069110;28;20020;-77
2021/03/08 10:18:05;;;;;;;1999.90;999.90;;;;;;;;;;5062694;28;20387;-77
2021/03/08 10:20:32;;;;;;;1999.90;999.90;;;;;;;;;;5067391;28;20021;-77
2021/03/08 10:22:58;;;;;;;1999.90;999.90;;;;;;;;;;5065736;28;20029;-78
2021/03/08 10:25:23;;;;;;;1999.90;999.90;;;;;;;;;;5063790;28;20039;-76
2021/03/08 10:27:56;;;;;;;1999.90;999.90;;;;;;;;;;5057370;28;20365;-79
2021/03/08 10:30:23;;;;;;;1999.90;999.90;;;;;;;;;;5065889;28;20039;-83
2021/03/08 10:32:49;;;;;;;1999.90;999.90;;;;;;;;;;5068575;28;20018;-83
2021/03/08 10:35:15;;;;;;;1999.90;999.90;;;;;;;;;;5064448;28;20050;-74
2021/03/08 10:37:41;;;;;;;1999.90;999.90;;;;;;;;;;5070345;28;20020;-76
2021/03/08 10:40:07;;;;;;;1999.90;999.90;;;;;;;;;;5065070;28;20618;-78
2021/03/08 10:42:33;;;;;;;1999.90;999.90;;;;;;;;;;5064500;28;20123;-77
2021/03/08 10:44:59;;;;;;;1999.90;999.90;;;;;;;;;;5060960;28;20127;-78
2021/03/08 10:47:24;;;;;;;1999.90;999.90;;;;;;;;;;5067001;28;20020;-78
2021/03/08 10:49:50;;;;;;;1999.90;999.90;;;;;;;;;;5058067;28;20029;-76
2021/03/08 10:52:16;;;;;;;1999.90;999.90;;;;;;;;;;5057762;28;20056;-78
2021/03/08 10:54:42;;;;;;;1999.90;999.90;;;;;;;;;;5058538;28;20060;-82
2021/03/08 10:57:07;;;;;;;1999.90;999.90;;;;;;;;;;5059761;28;20026;-81
2021/03/08 10:59:32;;;;;;;1999.90;999.90;;;;;;;;;;5064408;28;20480;-81
2021/03/08 11:02:02;;;;;;;1999.90;999.90;;;;;;;;;;5059502;28;20017;-81
2021/03/08 11:04:27;;;;;;;1999.90;999.90;;;;;;;;;;5062445;28;20066;-84
2021/03/08 11:06:53;;;;;;;1999.90;999.90;;;;;;;;;;5066104;28;20471;-82
2021/03/08 11:09:28;;;;;;;1999.90;999.90;;;;;;;;;;5067089;28;20028;-82
2021/03/08 11:11:54;;;;;;;;;;;;;;;;;;5064570;28;20056;-82
2021/03/08 11:14:22;;;;;;;1999.90;999.90;;;;;;;;;;5069020;28;19958;-82
2021/03/08 11:16:48;;;;;;;1999.90;999.90;;;;;;;;;;5067234;28;20072;-83
2021/03/08 11:19:14;;;;;;;1999.90;999.90;;;;;;;;;;5067907;28;20025;-83
2021/03/08 11:21:39;;;;;;;1999.90;999.90;;;;;;;;;;5062879;28;20032;-84
2021/03/08 11:24:14;;;;;;;1999.90;999.90;;;;;;;;;;5068323;28;20025;-82
2021/03/08 11:26:39;;;;;;;1999.90;999.90;;;;;;;;;;5077210;28;20028;-82
2021/03/08 11:29:05;;;;;;;1999.90;999.90;;;;;;;;;;5081469;28;20024;-83
2021/03/08 11:31:30;;;;;;;1999.90;999.90;;;;;;;;;;5075870;28;20082;-78
2021/03/08 11:33:56;;;;;;;1999.90;999.90;;;;;;;;;;5063613;28;20048;-81
2021/03/08 11:36:34;;;;;;;1999.90;999.90;;;;;;;;;;5062370;28;20082;-80
2021/03/08 11:39:00;;;;;;;1999.90;999.90;;;;;;;;;;5061871;28;20044;-78
2021/03/08 11:41:26;;;;;;;1999.90;999.90;;;;;;;;;;5070270;28;20107;-80
2021/03/08 11:43:51;;;;;;;1999.90;999.90;;;;;;;;;;5061795;28;20104;-79
2021/03/08 11:46:17;;;;;;;1999.90;999.90;;;;;;;;;;5072061;28;20162;-81
2021/03/08 11:48:42;;;;;;;1999.90;999.90;;;;;;;;;;5072325;28;20039;-79
2021/03/08 11:51:08;;;;;;;1999.90;999.90;;;;;;;;;;5063630;28;20468;-82
2021/03/08 11:53:33;;;;;;;1999.90;999.90;;;;;;;;;;5067118;28;20485;-79
2021/03/08 11:55:59;;;;;;;1999.90;999.90;;;;;;;;;;5062198;28;20025;-78
2021/03/08 11:58:24;;;;;;;1999.90;999.90;;;;;;;;;;5070522;28;20031;-78
2021/03/08 12:00:50;;;;;;;1999.90;999.90;;;;;;;;;;5062763;28;20099;-79
2021/03/08 12:03:15;;;;;;;1999.90;999.90;;;;;;;;;;5066561;28;20049;-79
2021/03/08 12:05:40;;;;;;;1999.90;999.90;;;;;;;;;;5062753;28;20055;-79
2021/03/08 12:08:07;;;;;;;1999.90;999.90;;;;;;;;;;5067995;28;20020;-78
2021/03/08 12:10:32;;;;;;;1999.90;999.90;;;;;;;;;;5064694;28;20067;-78
2021/03/08 12:12:58;;;;;;;1999.90;999.90;;;;;;;;;;5066716;28;20547;-78
2021/03/08 12:15:23;;;;;;;1999.90;999.90;;;;;;;;;;5064491;28;20016;-77
2021/03/08 12:17:48;;;;;;;1999.90;999.90;;;;;;;;;;5067047;28;20388;-78
2021/03/08 12:20:14;;;;;;;1999.90;999.90;;;;;;;;;;5064336;28;20079;-77
2021/03/08 12:22:40;;;;;;;1999.90;999.90;;;;;;;;;;5063589;28;20028;-78
2021/03/08 12:25:07;;;;;;;1999.90;999.90;;;;;;;;;;5059986;28;20488;-78
2021/03/08 12:27:33;;;;;;;1999.90;999.90;;;;;;;;;;5065423;28;20028;-78
2021/03/08 12:29:58;;;;;;;1999.90;999.90;;;;;;;;;;5065723;28;20035;-79
2021/03/08 12:32:24;;;;;;;1999.90;999.90;;;;;;;;;;5065988;28;20020;-79
2021/03/08 12:34:49;;;;;;;1999.90;999.90;;;;;;;;;;5062842;28;20073;-79
2021/03/08 12:37:15;;;;;;;1999.90;999.90;;;;;;;;;;5068274;28;20115;-78
2021/03/08 12:39:40;;;;;;;1999.90;999.90;;;;;;;;;;5065938;28;20031;-79
2021/03/08 12:42:06;;;;;;;1999.90;999.90;;;;;;;;;;5063229;28;20066;-79
2021/03/08 12:44:31;;;;;;;1999.90;999.90;;;;;;;;;;5069220;28;20127;-79
2021/03/08 12:46:57;;;;;;;1999.90;999.90;;;;;;;;;;5065611;28;20045;-78
2021/03/08 12:49:22;;;;;;;1999.90;999.90;;;;;;;;;;5066029;28;20028;-77
2021/03/08 12:51:47;;;;;;;1999.90;999.90;;;;;;;;;;5058264;28;20621;-78
2021/03/08 12:54:13;;;;;;;1999.90;999.90;;;;;;;;;;5061121;28;20150;-78
2021/03/08 12:56:38;;;;;;;1999.90;999.90;;;;;;;;;;5066011;28;20052;-77
2021/03/08 12:59:04;;;;;;;1999.90;999.90;;;;;;;;;;5062250;28;20114;-77
2021/03/08 13:01:29;;;;;;;1999.90;999.90;;;;;;;;;;5066909;28;20021;-77
2021/03/08 13:03:55;;;;;;;1999.90;999.90;;;;;;;;;;5057000;28;20047;-77
2021/03/08 13:06:20;;;;;;;1999.90;999.90;;;;;;;;;;5067733;28;20505;-78
2021/03/08 13:08:46;;;;;;;1999.90;999.90;;;;;;;;;;5068440;28;20024;-78
2021/03/08 13:11:11;;;;;;;1999.90;999.90;;;;;;;;;;5063808;28;20057;-78
2021/03/08 13:13:36;;;;;;;1999.90;999.90;;;;;;;;;;5063387;28;20456;-78
2021/03/08 13:16:02;;;;;;;1999.90;999.90;;;;;;;;;;5059874;28;20102;-78
2021/03/08 13:18:27;;;;;;;1999.90;999.90;;;;;;;;;;5071154;28;20345;-78
2021/03/08 13:20:53;;;;;;;1999.90;999.90;;;;;;;;;;5067513;28;20068;-78
2021/03/08 13:23:18;;;;;;;1999.90;999.90;;;;;;;;;;5066528;28;20017;-78
2021/03/08 13:25:44;;;;;;;1999.90;999.90;;;;;;;;;;5067381;28;20047;-78
2021/03/08 13:28:09;;;;;;;1999.90;999.90;;;;;;;;;;5065215;28;20025;-79
2021/03/08 13:30:34;;;;;;;1999.90;999.90;;;;;;;;;;5055250;28;20060;-79
2021/03/08 13:33:00;;;;;;;1999.90;999.90;;;;;;;;;;5065553;28;20431;-77
2021/03/08 13:35:26;;;;;;;1999.90;999.90;;;;;;;;;;5070399;28;20027;-78
2021/03/08 13:37:52;;;;;;;1999.90;999.90;;;;;;;;;;5066830;28;20025;-77
2021/03/08 13:40:17;;;;;;;1999.90;999.90;;;;;;;;;;5067735;28;20064;-77
2021/03/08 13:42:43;;;;;;;1999.90;999.90;;;;;;;;;;5074728;28;20035;-78
2021/03/08 13:45:09;;;;;;;1999.90;999.90;;;;;;;;;;5066968;28;20037;-79